Hawaii METAR Reports

 

PHOG - Kahului, Hawaii, USA
Distance from station: WNW 8mi, 13km
Updated: Sat, 17-Nov-2018 8:54am HST
Partly Cloudy
Partly Cloudy
 Wind from NE
Wind: NE 18 mph , 30 km/h
Temperature: 77°F , 25°C
Dew Point: 73°F , 23°C
Humidity: 89%
Barometer: 30.05 inHg , 1017.6 hPa
Clouds: Partly Cloudy
Visibility: 10 miles , 16 km
Cloud details: Few Clouds 1200 ft
Partly Cloudy 2500 ft
Partly Cloudy 5000 ft
2018/11/17 18:54 PHOG 171854Z 04016KT 10SM FEW012 SCT025 SCT050 25/23 A3005 RMK AO2 SLP181 T02500233
PHJH - Lahaina/West Mau, Hawaii, USA
Distance from station: WNW 24mi, 39km
Updated: Sat, 17-Nov-2018 9:45am HST
Light rain, Mostly cloudy
Light rain, Mostly cloudy
 Wind from NNE
Wind: NNE 15 mph , 24 km/h, Gust: 28 mph , 44 km/h
Temperature: 72°F , 22°C
Dew Point: 70°F , 21°C
Humidity: 94%
Summary: Light Rain
Clouds: Mostly Cloudy
Visibility: 5 miles , 8 km
Cloud details: Mostly Cloudy 2500 ft
Mostly Cloudy 3500 ft
2018/11/17 19:45 PHJH 171945Z 02013G24KT 5SM -RA BKN025 BKN035 22/21 A30
 
PHNY - Lanai City Airpo, Hawaii, USA
Distance from station: W 40mi, 65km
Updated: Sat, 17-Nov-2018 9:28am HST
Overcast
Overcast
 Wind from ENE
Wind: ENE 7 mph , 11 km/h
Temperature: 72°F , 22°C
Dew Point: 70°F , 21°C
Humidity: 94%
Barometer: 30.11 inHg , 1019.6 hPa
Clouds: Overcast
Visibility: 9 miles , 14 km
Cloud details: Partly Cloudy 1300 ft
Mostly Cloudy 3000 ft
Overcast 4000 ft
2018/11/17 19:28 PHNY 171928Z AUTO 06006KT 9SM SCT013 BKN030 OVC040 22/21 A3011 RMK AO2
PHMK - Molokai, Hawaii, USA
Distance from station: WNW 55mi, 88km
Updated: Sat, 17-Nov-2018 9:33am HST
Light rain, Overcast
Light rain, Overcast
 Wind from NE
Wind: NE 13 mph , 20 km/h, Gust: 24 mph , 39 km/h
Temperature: 73°F , 23°C
Dew Point: 72°F , 22°C
Humidity: 94%
Barometer: 30.08 inHg , 1018.6 hPa
Summary: Light Rain
Clouds: Overcast
Visibility: 7 miles , 11 km
Cloud details: Mostly Cloudy 1300 ft
Overcast 2200 ft
2018/11/17 19:33 PHMK 171933Z 04011G21KT 7SM -RA BKN013 OVC022 23/22 A3008 RMK AO2 RAB00 P0001 T02280217
 
PHKO - Kailua/Kona, Hawaii, USA
Distance from station: SSE 79mi, 128km
Updated: Sat, 17-Nov-2018 8:53am HST
Partly Cloudy
Partly Cloudy
 Wind from S
Wind: S 9 mph , 15 km/h
Temperature: 81°F , 27°C
Heat Index: 83°F , 28°C
Dew Point: 66°F , 19°C
Humidity: 62%
Barometer: 30.00 inHg , 1015.9 hPa
Clouds: Partly Cloudy
Visibility: 10 miles , 16 km
Cloud details: Partly Cloudy 6000 ft
Partly Cloudy 8000 ft
2018/11/17 18:53 PHKO 171853Z 17008KT 10SM SCT060 SCT080 27/19 A3000 RMK AO2 SLP158 T02720194
PHSF - Bradshaw Aaf/Haw, Hawaii, USA
Distance from station: SE 90mi, 145km
Updated: Sat, 17-Nov-2018 8:56am HST
Clear
Clear
 
Temperature: 64°F , 18°C
Dew Point: 52°F , 11°C
Humidity: 64%
Barometer: 30.33 inHg , 1027.1 hPa
Clouds: Clear
Visibility: M 10 miles , 16 km
2018/11/17 18:56 PHSF 171856Z AUTO M 10SM CLR 18/11 A3033 RMK AO2 SLP157 WND DATA ESTMD T01800109 PWINO $
 
PHNG - Kaneohe Mcas, Hawaii, USA
Distance from station: WNW 102mi, 164km
Updated: Sat, 17-Nov-2018 8:57am HST
Mostly Cloudy
Mostly Cloudy
 Wind from NE
Wind: NE 15 mph , 24 km/h, Gust: 21 mph , 33 km/h
Temperature: 79°F , 26°C
Dew Point: 70°F , 21°C
Humidity: 74%
Barometer: 30.05 inHg , 1017.6 hPa
Clouds: Mostly Cloudy
Visibility: 10 miles , 16 km
Cloud details: Few Clouds 2400 ft
Partly Cloudy 3900 ft
Mostly Cloudy 8500 ft
2018/11/17 18:57 PHNG 171857Z AUTO 05013G18KT 10SM FEW024 SCT039 BKN085 26/21 A3005 RMK AO2 SLP171 T02560211 $
PHNL - Honolulu, Hawaii, USA
Distance from station: WNW 108mi, 174km
Updated: Sat, 17-Nov-2018 8:53am HST
Partly Cloudy
Partly Cloudy
 Wind from NNE
Wind: NNE 9 mph , 15 km/h
Temperature: 79°F , 26°C
Dew Point: 66°F , 19°C
Humidity: 65%
Barometer: 30.06 inHg , 1017.9 hPa
Clouds: Partly Cloudy
Visibility: 10 miles , 16 km
Cloud details: Few Clouds 2700 ft
Partly Cloudy 4000 ft
Partly Cloudy 9000 ft
2018/11/17 18:53 PHNL 171853Z 03008KT 10SM FEW027 SCT040 SCT090 26/19 A3006 RMK AO2 SLP177 VCSH N AND SE T02610189 $
 
PHTO - Hilo, Hawaii, USA
Distance from station: SE 114mi, 183km
Updated: Sat, 17-Nov-2018 8:53am HST
Overcast
Overcast
 Wind from WNW
Wind: WNW 6 mph , 9 km/h
Temperature: 75°F , 24°C
Dew Point: 72°F , 22°C
Humidity: 89%
Barometer: 30.05 inHg , 1017.6 hPa
Clouds: Overcast
Visibility: 6 miles , 10 km
Cloud details: Few Clouds 2600 ft
Partly Cloudy 4700 ft
Overcast 6000 ft
2018/11/17 18:53 PHTO 171853Z 29005KT 6SM FEW026 SCT047 OVC060 24/22 A3005 RMK AO2 RAB21E44 SLP174 P0001 T02390217
PHJR - Kalaeloa, Hawaii, USA
Distance from station: WNW 117mi, 189km
Updated: Sat, 17-Nov-2018 8:53am HST
Few Clouds
Few Clouds
 Wind from ENE
Wind: ENE 5 mph , 7 km/h
Temperature: 77°F , 25°C
Dew Point: 70°F , 21°C
Humidity: 79%
Barometer: 30.07 inHg , 1018.3 hPa
Clouds: Few Clouds
Visibility: 10 miles , 16 km
Cloud details: Few Clouds 4100 ft
2018/11/17 18:53 PHJR 171853Z AUTO 07004KT 10SM FEW041 25/21 A3007 RMK AO2 SLP187 T02500206 TSNO
 
PHHI - Wheeler Afb/Oahu, Hawaii, USA
Distance from station: WNW 120mi, 193km
Updated: Sat, 17-Nov-2018 8:56am HST
Partly Cloudy
Partly Cloudy
 Wind from NW
Wind: NW 6 mph , 9 km/h
Temperature: 73°F , 23°C
Dew Point: 70°F , 21°C
Humidity: 89%
Barometer: 30.07 inHg , 1018.3 hPa
Clouds: Partly Cloudy
Visibility: 10 miles , 16 km
Cloud details: Partly Cloudy 3500 ft
2018/11/17 18:56 PHHI 171856Z AUTO 32005KT 10SM SCT035 23/21 A3007 RMK AO2 SLP174 T02250209 $
PHLI - Lihue/Kauai Is, Hawaii, USA
Distance from station: WNW 209mi, 336km
Updated: Sat, 17-Nov-2018 8:53am HST
Overcast
Overcast
 Wind from NNE
Wind: NNE 18 mph , 30 km/h
Temperature: 77°F , 25°C
Dew Point: 64°F , 18°C
Humidity: 65%
Barometer: 30.10 inHg , 1019.3 hPa
Clouds: Overcast
Visibility: 10 miles , 16 km
Cloud details: Few Clouds 2700 ft
Overcast 3900 ft
2018/11/17 18:53 PHLI 171853Z 03016KT 10SM FEW027 OVC039 25/18 A3010 RMK AO2 SLP189 T02500183
 
PHBK - Barking Sands/Ka, Hawaii, USA
Distance from station: WNW 237mi, 382km
Updated: Sat, 17-Nov-2018 8:56am HST
Mostly Cloudy
Mostly Cloudy
 Wind from ENE
Wind: ENE 3 mph , 6 km/h
Temperature: 75°F , 24°C
Dew Point: 72°F , 22°C
Humidity: 89%
Barometer: 30.06 inHg , 1017.9 hPa
Clouds: Mostly Cloudy
Visibility: 10 miles , 16 km
Cloud details: Mostly Cloudy 4100 ft
2018/11/17 18:56 PHBK 171856Z AUTO 06003KT 10SM BKN041 24/22 A3006 RMK AO2 SLP180 T02440217